Time;durP1;ratioP1;P1;durP2;ratioP2;P2;SDS_P1;SDS_P2;PMS_P1;PMS_P2;Temp;Humidity;BMP_temperature;BMP_pressure;BME280_temperature;BME280_humidity;BME280_pressure;Samples;Min_cycle;Max_cycle;Signal;HPM_P1;HPM_P2
2023/09/27 00:02:18;;;;;;;7.70;7.10;;;;;;;13.57;100.00;101487.52;106468;1259;65810;-53
2023/09/27 00:04:46;;;;;;;5.90;5.50;;;;;;;13.51;100.00;101485.36;105681;1255;71440;-54
2023/09/27 00:07:13;;;;;;;8.60;5.90;;;;;;;13.44;100.00;101487.59;105062;1260;60521;-54
2023/09/27 00:09:41;;;;;;;7.20;6.60;;;;;;;13.38;100.00;101483.64;104674;1259;60523;-54
2023/09/27 00:12:09;;;;;;;9.90;7.90;;;;;;;13.37;100.00;101481.50;104867;1254;72588;-53
2023/09/27 00:14:36;;;;;;;12.30;7.90;;;;;;;13.37;100.00;101478.61;104812;1256;66963;-53
2023/09/27 00:17:03;;;;;;;10.00;9.10;;;;;;;13.38;100.00;101477.14;104849;1259;73264;-55
2023/09/27 00:19:31;;;;;;;8.30;7.50;;;;;;;13.35;100.00;101478.15;104611;1259;61715;-54
2023/09/27 00:21:58;;;;;;;8.00;7.40;;;;;;;13.27;100.00;101475.34;104572;1258;59438;-54
2023/09/27 00:24:25;;;;;;;7.10;6.60;;;;;;;13.21;100.00;101475.88;104678;1256;73941;-53
2023/09/27 00:26:53;;;;;;;6.80;6.40;;;;;;;13.19;100.00;101479.02;104617;1258;67392;-52
2023/09/27 00:29:20;;;;;;;8.70;6.50;;;;;;;13.13;100.00;101478.65;104614;1256;71374;-53
2023/09/27 00:31:48;;;;;;;10.50;6.50;;;;;;;13.06;100.00;101481.39;104656;1259;60643;-54
2023/09/27 00:34:16;;;;;;;8.80;6.60;;;;;;;13.03;100.00;101479.11;108789;1259;58841;-54
2023/09/27 00:36:44;;;;;;;7.30;6.60;;;;;;;13.06;100.00;101473.27;105215;1256;72320;-54
2023/09/27 00:39:11;;;;;;;8.90;6.90;;;;;;;13.07;100.00;101469.10;104730;1257;67011;-52
2023/09/27 00:41:39;;;;;;;7.30;6.30;;;;;;;13.08;100.00;101469.27;104849;1259;71364;-53
2023/09/27 00:44:06;;;;;;;13.10;8.90;;;;;;;13.09;100.00;101467.42;104513;1254;60690;-53
2023/09/27 00:46:33;;;;;;;10.70;9.20;;;;;;;13.09;100.00;101465.96;104679;1260;60556;-54
2023/09/27 00:49:01;;;;;;;14.90;11.30;;;;;;;13.03;100.00;101469.59;107293;1259;73785;-53
2023/09/27 00:51:29;;;;;;;15.30;13.60;;;;;;;12.99;100.00;101465.58;104620;1257;66931;-53
2023/09/27 00:53:56;;;;;;;13.30;11.80;;;;;;;13.00;100.00;101463.02;104668;1259;71483;-54
2023/09/27 00:56:24;;;;;;;20.80;14.30;;;;;;;13.00;100.00;101463.91;104999;1254;60999;-53
2023/09/27 00:58:52;;;;;;;20.50;12.70;;;;;;;12.91;100.00;101463.45;104681;1260;60956;-54
2023/09/27 01:01:20;;;;;;;16.80;11.80;;;;;;;12.80;100.00;101462.36;104729;1260;74749;-54
2023/09/27 01:03:47;;;;;;;13.70;10.90;;;;;;;12.70;100.00;101468.09;104885;1257;67088;-54
2023/09/27 01:06:15;;;;;;;14.90;9.80;;;;;;;12.60;100.00;101462.27;104603;1260;72017;-51
2023/09/27 01:08:42;;;;;;;14.80;9.90;;;;;;;12.54;100.00;101467.11;104726;1260;60641;-53
2023/09/27 01:11:10;;;;;;;16.10;8.70;;;;;;;12.55;100.00;101465.10;104742;1259;60549;-54
2023/09/27 01:13:37;;;;;;;13.50;9.60;;;;;;;12.55;100.00;101463.13;104537;1255;74748;-54
2023/09/27 01:16:05;;;;;;;11.80;9.00;;;;;;;12.51;100.00;101464.65;108905;1254;67494;-55
2023/09/27 01:18:32;;;;;;;11.70;9.70;;;;;;;12.54;100.00;101465.68;105167;1261;71216;-54
2023/09/27 01:21:01;;;;;;;13.70;10.40;;;;;;;12.56;100.00;101468.14;104690;1260;61888;-54
2023/09/27 01:23:28;;;;;;;10.20;9.20;;;;;;;12.57;100.00;101471.55;104751;1259;60542;-52
2023/09/27 01:25:59;;;;;;;16.40;10.60;;;;;;;12.58;100.00;101469.00;105900;1257;72636;-54
2023/09/27 01:28:27;;;;;;;11.80;10.10;;;;;;;12.59;100.00;101473.11;108941;1254;65653;-54
2023/09/27 01:30:54;;;;;;;11.50;9.40;;;;;;;12.53;100.00;101473.23;108703;1254;73115;-54
2023/09/27 01:33:22;;;;;;;11.00;9.80;;;;;;;12.47;100.00;101472.54;105984;1254;60532;-54
2023/09/27 01:35:49;;;;;;;12.20;10.90;;;;;;;12.46;100.00;101469.69;104767;1262;60540;-54
2023/09/27 01:38:17;;;;;;;14.10;11.00;;;;;;;12.46;100.00;101467.70;104771;1260;73800;-54
2023/09/27 01:40:44;;;;;;;10.40;9.40;;;;;;;12.45;100.00;101467.20;104770;1260;65937;-54
2023/09/27 01:43:12;;;;;;;13.70;9.50;;;;;;;12.45;100.00;101466.27;109171;1257;72714;-54
2023/09/27 01:45:42;;;;;;;15.20;11.00;;;;;;;12.45;100.00;101468.98;108832;1255;60526;-55
2023/09/27 01:48:10;;;;;;;12.10;9.60;;;;;;;12.39;100.00;101466.65;108999;1253;59991;-55
2023/09/27 01:50:37;;;;;;;13.40;9.10;;;;;;;12.36;100.00;101463.84;108833;1252;72630;-55
2023/09/27 01:53:05;;;;;;;13.20;9.90;;;;;;;12.34;100.00;101463.91;108986;1254;67861;-55
2023/09/27 01:55:33;;;;;;;11.70;9.10;;;;;;;12.34;100.00;101465.34;109003;1254;73195;-52
2023/09/27 01:58:01;;;;;;;12.20;8.90;;;;;;;12.38;100.00;101467.58;105502;1254;60580;-52
2023/09/27 02:00:29;;;;;;;10.90;8.90;;;;;;;12.42;100.00;101466.73;108878;1254;59392;-54
2023/09/27 02:02:58;;;;;;;15.50;9.00;;;;;;;12.46;100.00;101468.77;109020;1253;74216;-54
2023/09/27 02:05:26;;;;;;;10.30;9.20;;;;;;;12.44;100.00;101469.57;108984;1254;66991;-54
2023/09/27 02:07:54;;;;;;;14.10;11.10;;;;;;;12.35;100.00;101471.44;107470;1256;72926;-54
2023/09/27 02:10:22;;;;;;;11.20;10.00;;;;;;;12.23;100.00;101469.45;108854;1254;60525;-54
2023/09/27 02:12:49;;;;;;;11.20;9.90;;;;;;;12.17;100.00;101471.59;108974;1252;60059;-54
2023/09/27 02:15:17;;;;;;;10.20;9.20;;;;;;;12.13;100.00;101472.77;107567;1255;72846;-53
2023/09/27 02:17:44;;;;;;;10.40;9.40;;;;;;;12.08;100.00;101474.52;104595;1256;69135;-53
2023/09/27 02:20:17;;;;;;;11.80;9.00;;;;;;;12.05;100.00;101470.10;104838;1254;72683;-54
2023/09/27 02:22:47;;;;;;;10.90;8.40;;;;;;;12.05;100.00;101469.41;105371;1254;60537;-54
2023/09/27 02:25:16;;;;;;;8.50;7.70;;;;;;;12.04;100.00;101471.05;104930;1253;62289;-54
2023/09/27 02:27:44;;;;;;;10.30;8.00;;;;;;;12.05;100.00;101473.20;106821;1259;73928;-54
2023/09/27 02:30:12;;;;;;;8.80;7.90;;;;;;;12.07;100.00;101475.64;104783;1260;66831;-53
2023/09/27 02:32:42;;;;;;;11.00;7.50;;;;;;;12.11;100.00;101475.53;105449;1258;71398;-54
2023/09/27 02:35:10;;;;;;;9.10;8.20;;;;;;;12.15;100.00;101468.80;104939;1254;65894;-53
2023/09/27 02:37:43;;;;;;;9.10;8.20;;;;;;;12.16;100.00;101468.59;105220;1254;60059;-53
2023/09/27 02:40:11;;;;;;;13.20;11.50;;;;;;;12.15;100.00;101470.77;106558;1251;72664;-53
2023/09/27 02:42:44;;;;;;;10.10;9.10;;;;;;;12.13;100.00;101472.96;105342;1257;68398;-54
2023/09/27 02:45:11;;;;;;;11.30;9.40;;;;;;;12.11;100.00;101475.17;104781;1257;71486;-53
2023/09/27 02:47:43;;;;;;;11.40;10.20;;;;;;;12.05;100.00;101474.98;105270;1254;60549;-52
2023/09/27 02:50:11;;;;;;;12.30;10.60;;;;;;;11.99;100.00;101477.84;107518;1251;62209;-54
2023/09/27 02:52:39;;;;;;;12.50;10.80;;;;;;;11.93;100.00;101482.67;104589;1253;72573;-54
2023/09/27 02:55:08;;;;;;;10.60;9.50;;;;;;;11.88;100.00;101483.36;104809;1256;67087;-53
2023/09/27 02:57:38;;;;;;;14.00;10.50;;;;;;;11.82;100.00;101480.10;105023;1254;73059;-53
2023/09/27 03:00:06;;;;;;;11.60;10.40;;;;;;;11.82;100.00;101480.11;104757;1254;61769;-54
2023/09/27 03:02:35;;;;;;;11.70;10.10;;;;;;;11.77;100.00;101478.77;104906;1254;60498;-53
2023/09/27 03:05:04;;;;;;;16.20;8.70;;;;;;;11.71;100.00;101478.36;104937;1257;74336;-54
2023/09/27 03:07:33;;;;;;;10.60;8.70;;;;;;;11.71;100.00;101479.09;106938;1254;67055;-54
2023/09/27 03:10:08;;;;;;;12.80;8.60;;;;;;;11.71;100.00;101479.81;105743;1256;72332;-54
2023/09/27 03:12:38;;;;;;;12.20;10.50;;;;;;;11.70;100.00;101483.95;106748;1255;62186;-54
2023/09/27 03:15:10;;;;;;;15.30;10.70;;;;;;;11.73;100.00;101483.90;105800;1259;60419;-54
2023/09/27 03:17:40;;;;;;;13.40;10.60;;;;;;;11.75;100.00;101487.62;105100;1257;72665;-54
2023/09/27 03:20:16;;;;;;;12.70;10.70;;;;;;;11.78;100.00;101482.54;104858;1260;68110;-54
2023/09/27 03:22:46;;;;;;;13.20;9.30;;;;;;;11.83;100.00;101488.52;109061;1253;71411;-54
2023/09/27 03:25:16;;;;;;;12.80;11.50;;;;;;;11.84;100.00;101483.45;106436;1258;60553;-54
2023/09/27 03:27:44;;;;;;;12.60;10.50;;;;;;;11.81;100.00;101484.08;104823;1254;60432;-54
2023/09/27 03:30:12;;;;;;;13.30;11.20;;;;;;;11.76;100.00;101483.84;104948;1260;72630;-52
2023/09/27 03:32:40;;;;;;;16.10;11.50;;;;;;;11.69;100.00;101484.33;104886;1253;65873;-54
2023/09/27 03:35:08;;;;;;;13.30;11.30;;;;;;;11.63;100.00;101483.60;104834;1260;73122;-53
2023/09/27 03:37:35;;;;;;;13.90;10.50;;;;;;;11.60;100.00;101487.80;104927;1255;61696;-53
2023/09/27 03:40:04;;;;;;;10.70;9.60;;;;;;;11.61;100.00;101484.73;104844;1251;60558;-53
2023/09/27 03:42:33;;;;;;;13.10;9.90;;;;;;;11.61;100.00;101485.09;104900;1251;72638;-52
2023/09/27 03:45:00;;;;;;;15.70;10.00;;;;;;;11.63;100.00;101482.71;104910;1255;65767;-53
2023/09/27 03:47:29;;;;;;;14.60;11.40;;;;;;;11.64;100.00;101482.70;104935;1258;71444;-53
2023/09/27 03:49:57;;;;;;;12.80;9.80;;;;;;;11.60;100.00;101484.39;108888;1254;60743;-54
2023/09/27 03:52:25;;;;;;;15.20;10.60;;;;;;;11.56;100.00;101485.57;106649;1259;62416;-53
2023/09/27 03:54:52;;;;;;;18.80;12.70;;;;;;;11.53;100.00;101486.39;104762;1257;73766;-52
2023/09/27 03:57:19;;;;;;;14.90;11.10;;;;;;;11.52;100.00;101486.93;104765;1254;66089;-53
2023/09/27 03:59:47;;;;;;;12.30;10.10;;;;;;;11.53;100.00;101482.42;104988;1260;72697;-53
2023/09/27 04:02:14;;;;;;;15.20;10.90;;;;;;;11.53;100.00;101481.53;104795;1254;61809;-54
2023/09/27 04:04:42;;;;;;;12.50;10.70;;;;;;;11.54;100.00;101480.61;105296;1254;62098;-52
2023/09/27 04:07:09;;;;;;;12.70;10.00;;;;;;;11.53;100.00;101479.72;104977;1257;74950;-53
2023/09/27 04:09:37;;;;;;;16.20;11.70;;;;;;;11.56;100.00;101479.12;104754;1260;65848;-53
2023/09/27 04:12:05;;;;;;;11.20;10.10;;;;;;;11.59;100.00;101482.96;104749;1257;70935;-52
2023/09/27 04:14:32;;;;;;;12.10;10.90;;;;;;;11.58;100.00;101478.86;104867;1258;60601;-51
2023/09/27 04:17:01;;;;;;;15.80;11.70;;;;;;;11.56;100.00;101481.47;104794;1254;60460;-52
2023/09/27 04:19:30;;;;;;;13.80;12.00;;;;;;;11.50;100.00;101482.12;107253;1259;74121;-54
2023/09/27 04:21:57;;;;;;;13.60;11.30;;;;;;;11.49;100.00;101481.79;105113;1253;65812;-53
2023/09/27 04:24:25;;;;;;;13.50;10.90;;;;;;;11.48;100.00;101485.44;104786;1253;71930;-53
2023/09/27 04:26:53;;;;;;;13.20;11.30;;;;;;;11.43;100.00;101485.55;104759;1264;60573;-53
2023/09/27 04:29:21;;;;;;;12.30;10.00;;;;;;;11.41;100.00;101488.83;109000;1253;59501;-54
2023/09/27 04:31:48;;;;;;;11.90;9.70;;;;;;;11.42;100.00;101486.63;109043;1254;73809;-54
2023/09/27 04:34:17;;;;;;;10.10;9.10;;;;;;;11.45;100.00;101487.83;108992;1253;64783;-54
2023/09/27 04:36:44;;;;;;;12.10;10.10;;;;;;;11.49;100.00;101487.91;108823;1257;71373;-54
2023/09/27 04:39:13;;;;;;;14.90;10.00;;;;;;;11.53;100.00;101485.13;108970;1253;62629;-54
2023/09/27 04:41:42;;;;;;;14.10;9.40;;;;;;;11.60;100.00;101485.13;109008;1253;59989;-54
2023/09/27 04:44:09;;;;;;;14.80;10.10;;;;;;;11.68;100.00;101482.77;109130;1253;74392;-54
2023/09/27 04:46:37;;;;;;;11.80;9.40;;;;;;;11.75;100.00;101483.13;108932;1254;66127;-54
2023/09/27 04:49:04;;;;;;;12.20;8.20;;;;;;;11.81;100.00;101476.54;108979;1253;70463;-54
2023/09/27 04:51:32;;;;;;;11.00;9.60;;;;;;;11.86;100.00;101475.48;108983;1253;60418;-54
2023/09/27 04:54:03;;;;;;;13.10;9.00;;;;;;;11.91;100.00;101474.66;108903;1253;180623;-54
2023/09/27 04:57:23;;;;;;;10.90;9.90;;;;;;;11.94;100.00;101515.58;101919;1291;599695;-53
2023/09/27 04:59:52;;;;;;;9.80;8.70;;;;;;;11.98;100.00;101512.77;108170;1266;59401;-54
2023/09/27 05:02:20;;;;;;;14.60;8.80;;;;;;;12.03;100.00;101508.85;108305;1266;60778;-54
2023/09/27 05:04:47;;;;;;;9.90;7.90;;;;;;;12.07;100.00;101508.57;108270;1266;73224;-52
2023/09/27 05:07:16;;;;;;;9.00;8.10;;;;;;;12.12;100.00;101507.70;108336;1266;67156;-52
2023/09/27 05:09:43;;;;;;;8.40;6.90;;;;;;;12.18;100.00;101504.85;108275;1266;71440;-52
2023/09/27 05:12:12;;;;;;;7.50;6.80;;;;;;;12.25;100.00;101506.65;107053;1264;153281;-53
2023/09/27 05:14:39;;;;;;;9.00;8.20;;;;;;;12.32;100.00;101501.59;104379;1270;59257;-52
2023/09/27 05:17:07;;;;;;;8.30;7.50;;;;;;;12.41;100.00;101497.20;104616;1264;71016;-53
2023/09/27 05:19:34;;;;;;;7.30;6.70;;;;;;;12.52;100.00;101500.30;104123;1269;67046;-53
2023/09/27 05:22:02;;;;;;;8.00;7.30;;;;;;;12.62;100.00;101496.95;104255;1267;71446;-53
2023/09/27 05:24:32;;;;;;;8.30;7.60;;;;;;;12.74;100.00;101501.64;104213;1264;60464;-53
2023/09/27 05:27:03;;;;;;;8.80;7.80;;;;;;;12.88;100.00;101497.79;104226;1268;60197;-53
2023/09/27 05:29:31;;;;;;;9.90;6.70;;;;;;;13.04;100.00;101494.98;104259;1264;72201;-53
2023/09/27 05:31:58;;;;;;;8.90;8.10;;;;;;;13.20;100.00;101497.91;104818;1263;68997;-54
2023/09/27 05:34:28;;;;;;;8.30;6.20;;;;;;;13.37;100.00;101495.92;104536;1266;71453;-54
2023/09/27 05:36:56;;;;;;;7.00;6.50;;;;;;;13.54;100.00;101498.80;104085;1267;60491;-53
2023/09/27 05:39:24;;;;;;;8.20;7.50;;;;;;;13.67;100.00;101498.17;104579;1267;60019;-54
2023/09/27 05:41:51;;;;;;;8.20;6.50;;;;;;;13.79;100.00;101499.05;104306;1264;71928;-53
2023/09/27 05:44:18;;;;;;;6.90;6.30;;;;;;;13.91;100.00;101498.10;104311;1269;67251;-53
2023/09/27 05:46:47;;;;;;;9.50;7.70;;;;;;;14.03;100.00;101498.59;104991;1266;71453;-54
2023/09/27 05:49:15;;;;;;;9.90;7.70;;;;;;;14.14;100.00;101500.54;104022;1265;60477;-53
2023/09/27 05:51:43;;;;;;;8.70;7.90;;;;;;;14.27;100.00;101500.79;103894;1264;60920;-53
2023/09/27 05:54:10;;;;;;;9.20;8.20;;;;;;;14.39;100.00;101497.83;104541;1263;72748;-53
2023/09/27 05:56:38;;;;;;;13.40;7.40;;;;;;;14.52;100.00;101494.33;104620;1269;66452;-53
2023/09/27 05:59:08;;;;;;;11.40;7.80;;;;;;;14.64;100.00;101497.65;104161;1264;73287;-54
2023/09/27 06:01:37;;;;;;;17.00;7.90;;;;;;;14.76;100.00;101500.80;104232;1266;61375;-54
2023/09/27 06:04:04;;;;;;;10.60;9.50;;;;;;;14.88;100.00;101502.52;104088;1264;60523;-54
2023/09/27 06:06:32;;;;;;;8.90;8.00;;;;;;;15.00;100.00;101506.91;104169;1270;73168;-54
2023/09/27 06:08:59;;;;;;;10.00;8.80;;;;;;;15.14;100.00;101511.63;103979;1264;66030;-53
2023/09/27 06:11:27;;;;;;;17.80;9.90;;;;;;;15.26;100.00;101511.33;104240;1268;71481;-56
2023/09/27 06:13:54;;;;;;;14.50;10.10;;;;;;;15.37;100.00;101514.67;104103;1267;60454;-53
2023/09/27 06:16:21;;;;;;;14.70;10.20;;;;;;;15.48;100.00;101515.13;104124;1264;59705;-53
2023/09/27 06:18:49;;;;;;;18.20;8.90;;;;;;;15.58;100.00;101516.20;104148;1264;71842;-54
2023/09/27 06:21:17;;;;;;;12.30;9.70;;;;;;;15.69;100.00;101510.30;108263;1264;66120;-52
2023/09/27 06:23:44;;;;;;;13.30;9.20;;;;;;;15.81;100.00;101512.14;106434;1263;71415;-53
2023/09/27 06:26:12;;;;;;;13.80;9.40;;;;;;;15.94;100.00;101510.18;104179;1264;61603;-52
2023/09/27 06:28:40;;;;;;;12.50;9.10;;;;;;;16.05;100.00;101511.52;104335;1263;59680;-54
2023/09/27 06:31:07;;;;;;;14.20;8.40;;;;;;;16.15;100.00;101506.91;103993;1267;71867;-54
2023/09/27 06:33:39;;;;;;;14.20;9.20;;;;;;;16.26;100.00;101510.59;104157;1269;66727;-57
2023/09/27 06:36:07;;;;;;;7.90;7.10;;;;;;;16.38;100.00;101509.48;104311;1266;71465;-55
2023/09/27 06:38:35;;;;;;;9.90;8.00;;;;;;;16.50;100.00;101510.59;104662;1257;61732;-53
2023/09/27 06:41:03;;;;;;;13.50;8.10;;;;;;;16.62;100.00;101507.70;104853;1262;61005;-54
2023/09/27 06:43:31;;;;;;;11.10;6.20;;;;;;;16.76;100.00;101509.27;104836;1257;71804;-55
2023/09/27 06:46:01;;;;;;;8.20;7.20;;;;;;;16.89;100.00;101511.20;104622;1260;66927;-54
2023/09/27 06:48:29;;;;;;;13.00;7.50;;;;;;;17.02;100.00;101512.18;105568;1259;71480;-54
2023/09/27 06:50:56;;;;;;;7.80;6.90;;;;;;;17.16;100.00;101511.54;104733;1263;60485;-54
2023/09/27 06:53:24;;;;;;;19.20;8.40;;;;;;;17.26;100.00;101511.23;104662;1258;59998;-55
2023/09/27 06:55:59;;;;;;;9.60;7.90;;;;;;;17.36;100.00;101514.73;104605;1257;71809;-55
2023/09/27 06:58:27;;;;;;;8.40;6.60;;;;;;;17.45;100.00;101514.66;105725;1263;67490;-56
2023/09/27 07:00:55;;;;;;;9.60;6.50;;;;;;;17.53;100.00;101514.99;104729;1262;73323;-56
2023/09/27 07:03:27;;;;;;;6.70;6.10;;;;;;;17.63;100.00;101522.14;104610;1263;60392;-55
2023/09/27 07:05:55;;;;;;;8.60;7.50;;;;;;;17.72;100.00;101524.23;104987;1257;60413;-56
2023/09/27 07:08:23;;;;;;;10.10;7.60;;;;;;;17.81;100.00;101521.42;104341;1258;73153;-52
2023/09/27 07:10:50;;;;;;;8.50;7.50;;;;;;;17.87;100.00;101520.19;105712;1257;64986;-54
2023/09/27 07:13:18;;;;;;;9.40;6.50;;;;;;;17.94;100.00;101522.39;104767;1259;71557;-53
2023/09/27 07:15:45;;;;;;;8.70;7.50;;;;;;;18.02;100.00;101524.16;104726;1262;60783;-54
2023/09/27 07:18:13;;;;;;;7.60;6.90;;;;;;;18.11;100.00;101520.96;104688;1257;59756;-54
2023/09/27 07:20:42;;;;;;;11.90;6.90;;;;;;;18.21;100.00;101521.75;104746;1258;73132;-52
2023/09/27 07:23:14;;;;;;;7.80;7.00;;;;;;;18.29;100.00;101518.05;104741;1260;67118;-53
2023/09/27 07:25:44;;;;;;;8.80;8.00;;;;;;;18.39;100.00;101520.23;104560;1257;72740;-53
2023/09/27 07:28:12;;;;;;;9.00;6.80;;;;;;;18.48;100.00;101518.63;105959;1258;62496;-53
2023/09/27 07:30:39;;;;;;;12.10;6.60;;;;;;;18.58;100.00;101523.59;104583;1257;60177;-54
2023/09/27 07:33:08;;;;;;;8.70;6.00;;;;;;;18.68;100.00;101523.61;104553;1258;73088;-54
2023/09/27 07:35:44;;;;;;;11.30;6.30;;;;;;;18.77;100.00;101525.86;108643;1257;65805;-54
2023/09/27 07:38:11;;;;;;;7.40;5.90;;;;;;;18.84;100.00;101524.17;108694;1259;73638;-53
2023/09/27 07:40:39;;;;;;;8.20;6.50;;;;;;;18.94;100.00;101528.92;108760;1257;60720;-56
2023/09/27 07:43:06;;;;;;;14.90;6.50;;;;;;;19.04;100.00;101531.45;108740;1257;60093;-56
2023/09/27 07:45:36;;;;;;;8.40;5.70;;;;;;;19.13;100.00;101529.46;107914;1257;75072;-54
2023/09/27 07:48:04;;;;;;;8.90;5.30;;;;;;;19.22;100.00;101529.18;104799;1257;67369;-55
2023/09/27 07:50:34;;;;;;;10.80;6.70;;;;;;;19.30;100.00;101529.99;108743;1258;71281;-57
2023/09/27 07:53:08;;;;;;;14.20;8.60;;;;;;;19.40;100.00;101528.52;108765;1256;59924;-57
2023/09/27 07:55:42;;;;;;;;;;;;;;;19.47;100.00;101526.66;108795;1257;58802;-55
2023/09/27 07:58:12;;;;;;;13.30;12.00;;;;;;;19.54;100.00;101527.91;108867;1257;72207;-55
2023/09/27 08:00:40;;;;;;;9.30;7.90;;;;;;;19.63;100.00;101527.77;108862;1256;66799;-57
2023/09/27 08:03:08;;;;;;;8.20;6.70;;;;;;;19.73;100.00;101529.40;108819;1256;71622;-55
2023/09/27 08:05:42;;;;;;;6.90;6.20;;;;;;;19.81;100.00;101532.02;108772;1257;58892;-56
2023/09/27 08:08:10;;;;;;;7.20;5.00;;;;;;;19.87;100.00;101533.64;108805;1256;60060;-55
2023/09/27 08:10:43;;;;;;;9.60;6.40;;;;;;;19.95;100.00;101535.01;104935;1257;73138;-55
2023/09/27 08:13:14;;;;;;;5.70;5.00;;;;;;;20.02;100.00;101531.83;107080;1262;65640;-55
2023/09/27 08:15:42;;;;;;;8.10;4.30;;;;;;;20.08;100.00;101532.38;105125;1263;72676;-55
2023/09/27 08:18:10;;;;;;;8.30;5.30;;;;;;;20.16;100.00;101533.35;104765;1257;60796;-54
2023/09/27 08:20:38;;;;;;;4.00;3.40;;;;;;;20.24;100.00;101531.39;104606;1258;60565;-54
2023/09/27 08:23:05;;;;;;;7.70;3.70;;;;;;;20.33;100.00;101532.52;104613;1257;72312;-54
2023/09/27 08:25:33;;;;;;;7.80;4.30;;;;;;;20.41;100.00;101537.30;104993;1257;65776;-54
2023/09/27 08:28:01;;;;;;;6.00;4.00;;;;;;;20.47;100.00;101535.73;104530;1257;73133;-55
2023/09/27 08:30:29;;;;;;;8.00;3.90;;;;;;;20.48;100.00;101534.39;104461;1257;59742;-52
2023/09/27 08:32:56;;;;;;;8.80;3.80;;;;;;;20.48;100.00;101534.70;104643;1257;59785;-54
2023/09/27 08:35:23;;;;;;;4.80;3.90;;;;;;;20.50;100.00;101532.08;105312;1258;71851;-54
2023/09/27 08:37:51;;;;;;;6.20;3.40;;;;;;;20.53;100.00;101534.23;104434;1257;67176;-54
2023/09/27 08:40:19;;;;;;;5.40;2.90;;;;;;;20.55;100.00;101530.05;105334;1257;73179;-55
2023/09/27 08:42:47;;;;;;;4.20;2.90;;;;;;;20.58;100.00;101529.54;104704;1256;62287;-54
2023/09/27 08:45:16;;;;;;;8.30;3.00;;;;;;;20.63;100.00;101528.11;104832;1254;59660;-55
2023/09/27 08:47:44;;;;;;;4.40;3.20;;;;;;;20.72;100.00;101528.65;104704;1254;72809;-54
2023/09/27 08:50:13;;;;;;;9.40;3.20;;;;;;;20.79;100.00;101532.77;105143;1254;65975;-53
2023/09/27 08:52:44;;;;;;;5.60;3.90;;;;;;;20.86;100.00;101531.09;105607;1254;72766;-54
2023/09/27 08:55:12;;;;;;;6.40;3.90;;;;;;;20.93;100.00;101536.82;104866;1254;59752;-55
2023/09/27 08:57:51;;;;;;;5.90;4.30;;;;;;;20.97;100.00;101533.23;104575;1255;59835;-54
2023/09/27 09:00:20;;;;;;;4.90;3.50;;;;;;;21.01;100.00;101535.39;104880;1253;73234;-55
2023/09/27 09:02:52;;;;;;;5.50;4.10;;;;;;;21.03;100.00;101535.95;104922;1254;66936;-53
2023/09/27 09:05:20;;;;;;;3.00;2.50;;;;;;;21.07;100.00;101532.98;105203;1254;70533;-54
2023/09/27 09:07:47;;;;;;;8.30;3.30;;;;;;;21.10;100.00;101534.59;104804;1259;62308;-55
2023/09/27 09:10:15;;;;;;;4.40;3.20;;;;;;;21.16;100.00;101533.36;104763;1253;60453;-54
2023/09/27 09:12:44;;;;;;;6.00;3.30;;;;;;;21.23;100.00;101539.34;104970;1254;72608;-53
2023/09/27 09:15:26;;;;;;;3.50;2.40;;;;;;;21.28;100.00;101538.42;104987;1254;67469;-53
2023/09/27 09:17:57;;;;;;;6.40;4.20;;;;;;;21.33;100.00;101546.51;104807;1253;71467;-55
2023/09/27 09:20:33;;;;;;;5.40;2.80;;;;;;;21.35;100.00;101543.25;104777;1257;60553;-54
2023/09/27 09:23:12;;;;;;;12.10;2.50;;;;;;;21.38;100.00;101540.86;104745;1257;60441;-55
2023/09/27 09:25:43;;;;;;;6.60;2.50;;;;;;;21.45;100.00;101543.49;105059;1254;72608;-56
2023/09/27 09:28:13;;;;;;;2.90;2.60;;;;;;;21.52;100.00;101541.95;107278;1254;65627;-55
2023/09/27 09:30:41;;;;;;;9.50;2.50;;;;;;;21.56;100.00;101542.81;105216;1257;71456;-55
2023/09/27 09:33:11;;;;;;;6.60;1.80;;;;;;;21.61;100.00;101542.14;105118;1254;60495;-54
2023/09/27 09:35:39;;;;;;;5.90;3.20;;;;;;;21.67;100.00;101541.71;106307;1253;59744;-55
2023/09/27 09:38:07;;;;;;;6.00;2.90;;;;;;;21.74;100.00;101540.27;105354;1254;74505;-56
2023/09/27 09:40:51;;;;;;;4.40;3.30;;;;;;;21.81;100.00;101541.85;105061;1254;65763;-55
2023/09/27 09:43:33;;;;;;;3.20;2.70;;;;;;;21.83;100.00;101541.71;105104;1254;73331;-55
2023/09/27 09:46:03;;;;;;;4.50;3.10;;;;;;;21.85;100.00;101543.73;105444;1253;60531;-55
2023/09/27 09:48:33;;;;;;;8.00;2.60;;;;;;;21.88;100.00;101541.36;105294;1253;60479;-53
2023/09/27 09:51:07;;;;;;;10.00;3.20;;;;;;;21.89;100.00;101542.61;105398;1258;74335;-55
2023/09/27 09:53:38;;;;;;;3.20;2.00;;;;;;;21.88;100.00;101543.70;105375;1257;67384;-54
2023/09/27 09:56:07;;;;;;;2.20;2.10;;;;;;;21.90;100.00;101543.78;105180;1253;72740;-55
2023/09/27 09:58:57;;;;;;;8.00;3.30;;;;;;;21.97;100.00;101544.48;105947;1254;60461;-55
2023/09/27 10:01:26;;;;;;;8.90;2.70;;;;;;;22.00;100.00;101543.33;105117;1252;60529;-55
2023/09/27 10:03:54;;;;;;;5.40;2.50;;;;;;;22.03;100.00;101542.82;106378;1254;73896;-55
2023/09/27 10:06:22;;;;;;;6.20;3.20;;;;;;;22.06;100.00;101541.12;104513;1254;65832;-56
2023/09/27 10:09:13;;;;;;;7.30;3.40;;;;;;;22.11;100.00;101538.73;104796;1258;70437;-54
2023/09/27 10:11:42;;;;;;;3.10;2.00;;;;;;;22.14;100.00;101536.71;105101;1252;60709;-55
2023/09/27 10:14:10;;;;;;;7.50;2.80;;;;;;;22.16;100.00;101540.44;104980;1259;60712;-55
2023/09/27 10:16:38;;;;;;;6.70;2.90;;;;;;;22.18;100.00;101535.33;104749;1254;72686;-54
2023/09/27 10:19:05;;;;;;;4.90;2.20;;;;;;;22.18;100.00;101532.80;105742;1254;65708;-54
2023/09/27 10:21:34;;;;;;;5.40;3.10;;;;;;;22.20;100.00;101535.94;104662;1253;71383;-56
2023/09/27 10:24:02;;;;;;;4.30;2.50;;;;;;;22.22;100.00;101539.42;108896;1253;60092;-55
2023/09/27 10:26:37;;;;;;;3.40;2.00;;;;;;;22.25;100.00;101538.87;109020;1254;60565;-55
2023/09/27 10:29:10;;;;;;;3.40;2.80;;;;;;;22.28;100.00;101537.41;109102;1254;73883;-55
2023/09/27 10:31:58;;;;;;;7.40;2.50;;;;;;;22.31;100.00;101537.91;109100;1253;66189;-54
2023/09/27 10:34:25;;;;;;;6.20;3.20;;;;;;;22.37;100.00;101540.63;109065;1253;72714;-55
2023/09/27 10:36:53;;;;;;;2.40;2.00;;;;;;;22.41;100.00;101539.23;109145;1253;61262;-55
2023/09/27 10:39:38;;;;;;;5.20;1.60;;;;;;;22.46;100.00;101538.15;109166;1253;58844;-55
2023/09/27 10:42:05;;;;;;;6.30;2.20;;;;;;;22.51;100.00;101540.36;109120;1252;74324;-54
2023/09/27 10:44:33;;;;;;;4.60;2.30;;;;;;;22.55;100.00;101535.86;109102;1254;65644;-56
2023/09/27 10:47:03;;;;;;;9.50;1.80;;;;;;;22.57;100.00;101533.73;109042;1253;71256;-54
2023/09/27 10:49:38;;;;;;;4.40;2.00;;;;;;;22.57;100.00;101536.98;109066;1253;60790;-56
2023/09/27 10:52:16;;;;;;;7.00;2.40;;;;;;;22.59;100.00;101534.44;109095;1252;60492;-55
2023/09/27 10:54:43;;;;;;;4.20;2.40;;;;;;;22.64;100.00;101532.09;109030;1254;73808;-56
2023/09/27 10:57:14;;;;;;;4.40;1.80;;;;;;;22.69;100.00;101531.63;106427;1254;66366;-55
2023/09/27 10:59:45;;;;;;;5.90;2.10;;;;;;;22.73;100.00;101532.02;109099;1254;72497;-55
2023/09/27 11:02:12;;;;;;;10.60;2.00;;;;;;;22.78;100.00;101530.40;108962;1254;58851;-55
2023/09/27 11:04:40;;;;;;;5.40;1.80;;;;;;;22.83;100.00;101531.88;107068;1254;60508;-54
2023/09/27 11:07:08;;;;;;;5.40;2.40;;;;;;;22.85;100.00;101532.83;104741;1254;73923;-55
2023/09/27 11:09:43;;;;;;;4.30;2.00;;;;;;;22.85;100.00;101535.02;106117;1254;64975;-54
2023/09/27 11:12:11;;;;;;;2.70;1.60;;;;;;;22.86;100.00;101540.65;108958;1254;71502;-56
2023/09/27 11:14:43;;;;;;;4.00;2.40;;;;;;;22.87;100.00;101536.14;104892;1259;60482;-56